Terminal Aerodrome Forecast
Issued by NWS

Home | Current Version | Previous Version | Text Only | Print | Product List | Glossary Off
Versions: 1 2 3 4 5 6 7 8 9 10 11 12 13

550
FTUS43 KMPX 162339
TAFAXN
TAF
KAXN 162339Z 1700/1724 14016G24KT P6SM OVC010
     FM170100 14015G22KT P6SM SCT010 BKN070
     FM171000 16013KT P6SM OVC100
     FM171400 19010KT P6SM OVC015
     FM171800 31008KT P6SM OVC012=

USA.gov is the U.S. government's official web portal to all federal, state and local government web resources and services.